Tiempo atmosférico en la estación meteorológica de Alhama de Murcia, Murcia (157 m.)



Fecha
DESCASC
Temp. máxima en grados centígrados (hora)
DESCASC
Temp. mínima en grados centígrados (hora)
DESCASC
Temp. media en grados centígrados
DESCASC
Racha de viento máxima en m/sg (hora)
DESCASC
Velocidad máxima media en intervalos de 10 minutos(hora)
DESCASC
Precipitaciones diarias en mm
DESCASC
Precipitaciones de 00:00 a 06:00 en mm
DESCASC
Precipitaciones de 06:00 a 12:00 en mm
DESCASC
Precipitaciones de 12:00 a 18:00 en mm
DESCASC
Precipitaciones de 18:00 a 24:00 en mm
DESCASC
24-09-2020 34.1 (15:00) 18.9 (08:00) 26.5 12.78 (17:20) 6.39 (17:20) 0 0 0 0 0
23-09-2020 33.6 (16:40) 16.2 (00:00) 24.9 10 (17:00) 5 (17:00) 0 0 0 0 0
22-09-2020 32.6 (15:50) 16.6 (00:00) 24.6 8.61 (19:10) 5 (19:10) 0 0 0 0 0
21-09-2020 30.2 (16:00) 17.2 (00:00) 23.7 8.89 (19:10) 5.28 (18:30) 0 0 0 0 0
20-09-2020 30.8 (15:20) 17.8 (00:00) 24.3 9.44 (16:50) 5.56 (17:20) 0 0 0 0 0
19-09-2020 31 (16:10) 15.3 (00:00) 23.2 7.78 (16:50) 4.72 (16:50) 0 0 0 0 0
18-09-2020 25.3 (16:10) 18.9 (00:00) 22.1 10.28 (14:20) 5.83 (14:20) 7.2 0.2 3.4 3.6 0
17-09-2020 31.9 (18:00) 20.8 (00:00) 26.3 5.83 (18:10) 2.78 (17:40) 0 0 0 0 0
16-09-2020 32.6 (16:00) 18.3 (00:00) 25.4 7.78 (16:20) 4.44 (16:10) 0 0 0 0 0
15-09-2020 33.3 (16:30) 19.6 (00:00) 26.4 6.67 (16:50) 4.17 (17:20) 0 0 0 0 0
14-09-2020 31.6 (16:00) 17.4 (00:00) 24.5 9.44 (17:20) 5.56 (16:50) 0 0 0 0 0
13-09-2020 32.4 (15:40) 17.6 (00:00) 25 7.78 (15:30) 4.72 (17:10) 0 0 0 0 0
12-09-2020 34.2 (16:40) 15.3 (00:00) 24.8 6.67 (16:50) 3.33 (19:10) 0 0 0 0 0
11-09-2020 33.2 (15:40) 15.4 (00:00) 24.3 10.28 (17:10) 5.83 (16:20) 0 0 0 0 0
10-09-2020 31.5 (15:50) 15.5 (00:00) 23.5 9.72 (16:10) 5.83 (16:10) 0 0 0 0 0
09-09-2020 30.5 (16:30) 15.2 (00:00) 22.8 10.28 (19:20) 4.72 (19:30) 0 0 0 0 0
08-09-2020 28.1 (15:00) 17.8 (00:00) 22.9 8.61 (15:10) 5.28 (15:10) 0 0 0 0 0
07-09-2020 31.4 (16:10) 18.3 (06:30) 24.8 10.56 (17:30) 5.83 (17:30) 6 0 0 0 6
06-09-2020 31.9 (17:00) 17.4 (00:00) 24.6 9.44 (20:20) 5 (18:40) 0 0 0 0 0
05-09-2020 31.2 (16:40) 17.5 (00:00) 24.4 12.78 (15:50) 5 (19:00) 0 0 0 0 0
04-09-2020 30.2 (15:10) 16.3 (00:00) 23.3 9.44 (15:50) 5.56 (16:40) 0 0 0 0 0
03-09-2020 31.4 (15:50) 16.4 (00:00) 23.9 8.61 (17:30) 3.89 (18:20) 0 0 0 0 0
02-09-2020 30.9 (16:10) 18 (00:00) 24.4 9.72 (17:50) 4.72 (20:20) 0 0 0 0 0
01-09-2020 27.4 (15:00) 15.7 (00:00) 21.5 9.72 (18:10) 5.28 (18:10) 0 0 0 0 0
31-08-2020 29.7 (17:20) 15.5 (00:00) 22.6 12.22 (16:30) 5.28 (18:10) 0 0 0 0 0
30-08-2020 29.8 (16:40) 17.6 (00:00) 23.7 7.22 (19:10) 4.17 (16:40) 0 0 0 0 0
29-08-2020 33.7 (15:40) 20.2 (00:00) 27 9.72 (16:10) 5.28 (16:30) 15.2 0 0 15.2 0
28-08-2020 37.6 (16:30) 19.2 (00:00) 28.4 10.56 (18:00) 6.11 (19:00) 0 0 0 0 0

Gráficas

Temp. máximas Temp. mínimas Temp. medias Precipitaciones Rachas de viento máximas Velocidades máximas media en intervalos de 10 minutos

Datos horarios

Fecha y hora oficial Temperatura (ºC) Velocidad del viento (km/h) Dirección del viento Racha (km/h) Dirección de racha Precipitación (mm) Presión (hPa) Tendencia (hPa) Humedad (%)
2020-09-26 23:00:00 19.8 12 Sur 23 Sur 0 -- -- 54
2020-09-26 22:00:00 20.4 15 Sur 28 Sur 0 -- -- 50
2020-09-26 21:00:00 20.8 17 Sur 29 Sur 0 -- -- 46
2020-09-26 20:00:00 22 16 Sur 26 Sur 0 -- -- 40
2020-09-26 19:00:00 23.6 15 Sur 27 Sur 0 -- -- 34
2020-09-26 18:00:00 25.9 19 Sudoeste 32 Sur 0 -- -- 29
2020-09-26 17:00:00 27.4 8 Nordeste 28 Nordeste 0 -- -- 22
2020-09-26 16:00:00 26.7 15 Norte 26 Norte 0 -- -- 23
2020-09-26 15:00:00 25.8 14 Norte 27 Norte 0 -- -- 24
2020-09-26 14:00:00 24.7 14 Norte 44 Norte 0 -- -- 25
2020-09-26 13:00:00 23.1 18 Norte 32 Norte 0 -- -- 28
2020-09-26 12:00:00 21.8 17 Norte 33 Norte 0 -- -- 29
2020-09-26 11:00:00 20.5 18 Norte 31 Norte 0 -- -- 31
2020-09-26 10:00:00 18.8 10 Norte 18 Norte 0 -- -- 38
2020-09-26 09:00:00 17 9 Norte 20 Norte 0 -- -- 42
2020-09-26 08:00:00 15.7 3 Nordeste 18 Este 0 -- -- 46
2020-09-26 07:00:00 16.5 5 Norte 15 Norte 0 -- -- 41
2020-09-26 06:00:00 17 9 Noroeste 22 Norte 0 -- -- 39
2020-09-26 05:00:00 17.9 14 Norte 22 Norte 0 -- -- 36
2020-09-26 04:00:00 17.5 13 Norte 19 Norte 0 -- -- 38
2020-09-26 03:00:00 16.9 4 Nordeste 12 Norte 0 -- -- 42
2020-09-26 02:00:00 17.8 7 Nordeste 14 Norte 0 -- -- 37
2020-09-26 01:00:00 19.3 7 Norte 15 Nordeste 0 -- -- 33
2020-09-26 00:00:00 19.4 5 Este 16 Nordeste 0 -- -- 33
2020-09-25 23:00:00 20.3 8 Nordeste 17 Norte 0 -- -- 30
2020-09-25 22:00:00 21 5 Norte 14 Norte 0 -- -- 33
2020-09-25 21:00:00 22 9 Este 23 Este 0 -- -- 29
2020-09-25 20:00:00 23.7 13 Nordeste 23 Nordeste 0 -- -- 30
2020-09-25 19:00:00 26.9 13 Norte 34 Noroeste 0 -- -- 23
2020-09-25 18:00:00 28.4 15 Norte 29 Nordeste 0 -- -- 21
2020-09-25 17:00:00 28.9 13 Norte 28 Norte 0 -- -- 22
2020-09-25 16:00:00 29.6 13 Norte 27 Norte 0 -- -- 23
2020-09-25 15:00:00 28.1 14 Nordeste 32 Nordeste 0 -- -- 30
2020-09-25 14:00:00 27.7 17 Nordeste 28 Este 0 -- -- 30
2020-09-25 13:00:00 26.5 17 Nordeste 28 Nordeste 0 -- -- 34
2020-09-25 12:00:00 25.9 17 Nordeste 26 Nordeste 0 -- -- 38
2020-09-25 11:00:00 25.2 9 Nordeste 19 Norte 0 -- -- 36
2020-09-25 10:00:00 25.1 5 Este 10 Este 0 -- -- 45
2020-09-25 09:00:00 22 6 Oeste 20 Sudoeste 0 -- -- 59
2020-09-25 08:00:00 22.2 12 Sudoeste 24 Sudoeste 0 -- -- 56
2020-09-25 07:00:00 23.5 11 Sudoeste 23 Sur 0 -- -- 52
2020-09-25 06:00:00 24.1 16 Sur 24 Sur 0 -- -- 50
2020-09-25 05:00:00 24.2 15 Sur 26 Sudoeste 0 -- -- 50
2020-09-25 04:00:00 24.8 16 Sur 29 Sudoeste 0 -- -- 48
2020-09-25 03:00:00 25.4 18 Sudoeste 37 Sudoeste 0 -- -- 46
2020-09-25 02:00:00 25.8 12 Sudoeste 24 Sur 0 -- -- 44
2020-09-25 01:00:00 26.3 11 Sudoeste 22 Sudoeste 0 -- -- 42
2020-09-25 00:00:00 27.1 13 Sudoeste 26 Sudoeste 0 -- -- 38
2020-09-24 23:00:00 27.3 6 Este 23 Sudoeste 0 -- -- 39
2020-09-24 22:00:00 28.3 12 Sudoeste 27 Sur 0 -- -- 34
2020-09-24 21:00:00 29.1 16 Sudoeste 32 Sudoeste 0 -- -- 32
2020-09-24 20:00:00 30.1 17 Sudoeste 32 Sur 0 -- -- 30
2020-09-24 19:00:00 32.3 12 Sudoeste 37 Oeste 0 -- -- 27
2020-09-24 18:00:00 32.2 15 Oeste 46 Oeste 0 -- -- 27
2020-09-24 17:00:00 32.3 8 Sudoeste 25 Noroeste 0 -- -- 28
2020-09-24 16:00:00 32.5 17 Sur 31 Sur 0 -- -- 33
2020-09-24 15:00:00 34.1 15 Sur 32 Sur 0 -- -- 29
2020-09-24 14:00:00 32.1 18 Sur 33 Sur 0 -- -- 31
2020-09-24 13:00:00 30.3 13 Sudoeste 24 Sudoeste 0 -- -- 38
2020-09-24 12:00:00 27.8 10 Sudoeste 17 Sudoeste 0 -- -- 44
2020-09-24 11:00:00 23.9 6 Sudoeste 12 Sudoeste 0 -- -- 59
2020-09-24 10:00:00 21.6 0 Calma 4 Norte 0 -- -- 76
2020-09-24 09:00:00 19.7 4 Sur 10 Sudoeste 0 -- -- 77
2020-09-24 08:00:00 18.9 3 Este 9 Sudeste 0 -- -- 75
2020-09-24 07:00:00 19.5 2 Oeste 12 Sudoeste 0 -- -- 71
2020-09-24 06:00:00 21.7 3 Nordeste 17 Este 0 -- -- 59
2020-09-24 05:00:00 22.8 6 Este 14 Nordeste 0 -- -- 55
2020-09-24 04:00:00 23.9 7 Nordeste 12 Este 0 -- -- 51
2020-09-24 03:00:00 24.3 6 Este 20 Este 0 -- -- 48
2020-09-24 02:00:00 23.6 10 Nordeste 14 Este 0 -- -- 51
2020-09-24 01:00:00 21.5 4 Sudeste 10 Sudeste 0 -- -- 61
2020-09-24 00:00:00 20.4 5 Sudoeste 15 Sur 0 -- -- 76
2020-09-23 23:00:00 20.8 4 Sur 10 Sur 0 -- -- 70
2020-09-23 22:00:00 21.8 9 Sur 18 Sur 0 -- -- 70
2020-09-23 21:00:00 23.8 9 Sudoeste 17 Sudoeste 0 -- -- 61
2020-09-23 20:00:00 26.5 10 Oeste 20 Oeste 0 -- -- 49
2020-09-23 19:00:00 30 6 Sur 18 Sur 0 -- -- 35
2020-09-23 18:00:00 28.8 13 Sur 27 Sur 0 -- -- 37
2020-09-23 17:00:00 32.4 18 Sur 36 Sur 0 -- -- 35
2020-09-23 16:00:00 33.3 13 Sur 26 Sur 0 -- -- 28
2020-09-23 15:00:00 31.4 8 Sur 18 Sur 0 -- -- 32
2020-09-23 14:00:00 31.5 7 Sur 14 Sur 0 -- -- 30
2020-09-23 13:00:00 28.1 5 Norte 10 Nordeste 0 -- -- 38
2020-09-23 12:00:00 24.3 4 Nordeste 7 Nordeste 0 -- -- 57
2020-09-23 11:00:00 23 3 Oeste 10 Sudoeste 0 -- -- 57
2020-09-23 10:00:00 20.1 4 Sudoeste 12 Sudoeste 0 -- -- 73
2020-09-23 09:00:00 17 4 Sudoeste 11 Sudoeste 0 -- -- 92
2020-09-23 08:00:00 16.3 4 Sudoeste 10 Sudoeste 0 -- -- 94
2020-09-23 07:00:00 16.7 6 Sudoeste 8 Sudoeste 0 -- -- 94
2020-09-23 06:00:00 17.3 4 Sudoeste 8 Sur 0 -- -- 92
2020-09-23 05:00:00 17.5 6 Sur 8 Sur 0 -- -- 91
2020-09-23 04:00:00 18.8 2 Nordeste 6 Este 0 -- -- 87
2020-09-23 03:00:00 19.2 2 Nordeste 5 Sudeste 0 -- -- 88
2020-09-23 02:00:00 19.5 4 Sudeste 11 Sur 0 -- -- 90
2020-09-23 01:00:00 19.9 8 Sur 12 Sur 0 -- -- 88
2020-09-23 00:00:00 20.7 5 Sur 16 Oeste 0 -- -- 83
2020-09-22 23:00:00 21.8 6 Oeste 18 Sudoeste 0 -- -- 76
2020-09-22 22:00:00 23.2 10 Sudoeste 19 Sudoeste 0 -- -- 63
2020-09-22 21:00:00 23.7 9 Sudoeste 22 Sur 0 -- -- 57
2020-09-22 20:00:00 25.5 15 Sur 31 Sur 0 -- -- 42
2020-09-22 19:00:00 27.1 16 Sudoeste 29 Sudoeste 0 -- -- 44
2020-09-22 18:00:00 30 13 Sur 26 Sudoeste 0 -- -- 39
2020-09-22 17:00:00 31.2 16 Sur 29 Sudoeste 0 -- -- 38
2020-09-22 16:00:00 32.6 12 Sudoeste 24 Sudoeste 0 -- -- 36
2020-09-22 15:00:00 30.4 7 Nordeste 14 Sudoeste 0 -- -- 35
2020-09-22 14:00:00 29.6 3 Sudeste 14 Nordeste 0 -- -- 36
2020-09-22 13:00:00 28.7 6 Este 16 Oeste 0 -- -- 37
2020-09-22 12:00:00 26.8 5 Nordeste 13 Nordeste 0 -- -- 42
2020-09-22 11:00:00 24.9 3 Nordeste 7 Norte 0 -- -- 50
2020-09-22 10:00:00 20.5 0 Calma 6 Sudeste 0 -- -- 71
2020-09-22 09:00:00 17.1 5 Sur 6 Sur 0 -- -- 88
2020-09-22 08:00:00 16.7 5 Nordeste 7 Nordeste 0 -- -- 85
2020-09-22 07:00:00 17 6 Nordeste 12 Este 0 -- -- 84
2020-09-22 06:00:00 17 6 Nordeste 9 Este 0 -- -- 83
2020-09-22 05:00:00 17.4 5 Nordeste 7 Nordeste 0 -- -- 81
2020-09-22 04:00:00 17.7 5 Nordeste 7 Norte 0 -- -- 80
2020-09-22 03:00:00 18.5 6 Nordeste 9 Este 0 -- -- 75
2020-09-22 02:00:00 18.4 4 Este 5 Este 0 -- -- 79
2020-09-22 01:00:00 20.5 0 Calma 16 Sur 0 -- -- 67
2020-09-22 00:00:00 22.4 8 Sur 22 Sur 0 -- -- 55
2020-09-21 23:00:00 23.1 11 Sur 24 Sur 0 -- -- 52
2020-09-21 22:00:00 23.7 15 Sur 28 Sur 0 -- -- 52
2020-09-21 21:00:00 24.1 19 Sur 31 Sudoeste 0 -- -- 53
2020-09-21 20:00:00 25.1 13 Sudoeste 32 Sur 0 -- -- 50
2020-09-21 19:00:00 27.1 18 Sudoeste 31 Sur 0 -- -- 45
2020-09-21 18:00:00 28.6 12 Sudoeste 24 Sur 0 -- -- 42
2020-09-21 17:00:00 29.8 2 Este 9 Sudoeste 0 -- -- 37
2020-09-21 16:00:00 30.2 4 Este 11 Noroeste 0 -- -- 36
2020-09-21 15:00:00 29.7 5 Noroeste 11 Oeste 0 -- -- 36
2020-09-21 14:00:00 28.9 3 Sudoeste 16 Noroeste 0 -- -- 39
2020-09-21 13:00:00 27.3 7 Norte 16 Oeste 0 -- -- 41
2020-09-21 12:00:00 25.5 4 Nordeste 10 Este 0 -- -- 49
2020-09-21 11:00:00 23.2 4 Nordeste 12 Norte 0 -- -- 58
2020-09-21 10:00:00 22.3 5 Nordeste 10 Nordeste 0 -- -- 61
2020-09-21 09:00:00 20.8 5 Nordeste 12 Nordeste 0 -- -- 64
2020-09-21 08:00:00 19.8 8 Este 14 Sudeste 0 -- -- 65
2020-09-21 07:00:00 19 7 Este 13 Este 0 -- -- 69
2020-09-21 06:00:00 17.6 3 Sudoeste 6 Norte 0 -- -- 85
2020-09-21 05:00:00 18.8 3 Nordeste 9 Nordeste 0 -- -- 75
2020-09-21 04:00:00 18.2 4 Nordeste 6 Nordeste 0 -- -- 81
2020-09-21 03:00:00 19 3 Nordeste 10 Nordeste 0 -- -- 79
2020-09-21 02:00:00 18.4 5 Este 8 Nordeste 0 -- -- 83
2020-09-21 01:00:00 18.4 4 Este 7 Este 0 -- -- 89
2020-09-21 00:00:00 18.8 4 Sudeste 5 Sur 0 -- -- 87
2020-09-20 23:00:00 19.7 0 Calma 7 Sudoeste 0 -- -- 76
2020-09-20 22:00:00 21.5 4 Oeste 21 Sudoeste 0 -- -- 59
2020-09-20 21:00:00 23 9 Sudoeste 30 Sudoeste 0 -- -- 55
2020-09-20 20:00:00 23.4 17 Sudoeste 31 Sudoeste 0 -- -- 67
2020-09-20 19:00:00 25.8 14 Sudoeste 29 Sur 0 -- -- 54
2020-09-20 18:00:00 27.1 15 Sur 32 Sudoeste 0 -- -- 46
2020-09-20 17:00:00 29.1 17 Sudoeste 34 Sudoeste 0 -- -- 41
2020-09-20 16:00:00 30.1 17 Sur 32 Sur 0 -- -- 38
2020-09-20 15:00:00 30.7 13 Sur 23 Sudoeste 0 -- -- 36
2020-09-20 14:00:00 28.9 5 Sur 16 Oeste 0 -- -- 37
2020-09-20 13:00:00 27.4 4 Oeste 13 Sudoeste 0 -- -- 40
2020-09-20 12:00:00 26 7 Nordeste 13 Nordeste 0 -- -- 43
2020-09-20 11:00:00 24.4 5 Norte 9 Nordeste 0 -- -- 50
2020-09-20 10:00:00 21.9 2 Oeste 10 Sur 0 -- -- 58
2020-09-20 09:00:00 18.6 6 Sudoeste 10 Sur 0 -- -- 77
2020-09-20 08:00:00 18.1 0 Calma 6 Norte 0 -- -- 77
2020-09-20 07:00:00 18.5 5 Nordeste 8 Nordeste 0 -- -- 67
2020-09-20 06:00:00 20.1 6 Nordeste 15 Nordeste 0 -- -- 61
2020-09-20 05:00:00 19.8 8 Nordeste 19 Este 0 -- -- 64
2020-09-20 04:00:00 20.6 9 Nordeste 18 Nordeste 0 -- -- 63
2020-09-20 03:00:00 19.9 5 Nordeste 19 Este 0 -- -- 72
2020-09-20 02:00:00 20 9 Nordeste 17 Este 0 -- -- 72
2020-09-20 01:00:00 20.4 5 Nordeste 11 Norte 0 -- -- 74
2020-09-20 00:00:00 21 8 Nordeste 10 Nordeste 0 -- -- 67
2020-09-19 23:00:00 20.3 4 Sudeste 10 Sur 0 -- -- 70
2020-09-19 22:00:00 21 7 Sur 11 Sudoeste 0 -- -- 67
2020-09-19 21:00:00 23.2 5 Sudoeste 20 Sudoeste 0 -- -- 56
2020-09-19 20:00:00 25.6 11 Sudoeste 20 Sudoeste 0 -- -- 47
2020-09-19 19:00:00 27.8 12 Sudoeste 20 Sudoeste 0 -- -- 42
2020-09-19 18:00:00 28.9 12 Sudoeste 27 Sudoeste 0 -- -- 42
2020-09-19 17:00:00 29.9 15 Sur 28 Sudoeste 0 -- -- 37
2020-09-19 16:00:00 30.8 10 Sur 21 Sur 0 -- -- 34
2020-09-19 15:00:00 29.8 6 Noroeste 18 Norte 0 -- -- 35
2020-09-19 14:00:00 29.2 3 Este 13 Sudoeste 0 -- -- 36
2020-09-19 13:00:00 27.9 5 Oeste 19 Sur 0 -- -- 41
2020-09-19 12:00:00 26.7 5 Este 19 Sudoeste 0 -- -- 47
2020-09-19 11:00:00 23.9 11 Sur 18 Sur 0 -- -- 57
2020-09-19 10:00:00 20.1 0 Calma 6 Nordeste 0 -- -- 79
2020-09-19 09:00:00 16.6 3 Este 12 Este 0 -- -- 96
2020-09-19 08:00:00 15.4 2 Nordeste 8 Nordeste 0 -- -- 96
2020-09-19 07:00:00 15.9 0 Calma 9 Sudoeste 0 -- -- 97
2020-09-19 06:00:00 16.4 4 Sudoeste 8 Sudoeste 0 -- -- 97
2020-09-19 05:00:00 17.1 3 Sudoeste 8 Sudeste 0 -- -- 96
2020-09-19 04:00:00 17.7 2 Sur 5 Sudeste 0 -- -- 95
2020-09-19 03:00:00 18.3 3 Este 8 Norte 0 -- -- 94
2020-09-19 02:00:00 19.1 6 Nordeste 13 Norte 0 -- -- 92
2020-09-19 01:00:00 19.2 6 Nordeste 10 Nordeste 0 -- -- 92
2020-09-19 00:00:00 19.7 4 Sudeste 16 Sudoeste 0 -- -- 89
2020-09-18 23:00:00 20 13 Sur 18 Sudoeste 0 -- -- 88
2020-09-18 22:00:00 20.3 10 Sur 14 Sudoeste 0 -- -- 85
2020-09-18 21:00:00 22.2 4 Sur 22 Sudeste 0 -- -- 73
2020-09-18 20:00:00 22.9 12 Sur 25 Sur 0 -- -- 70
2020-09-18 19:00:00 24.7 8 Sudeste 24 Sudeste 0 -- -- 67
2020-09-18 18:00:00 24.9 10 Sur 24 Sur 0 -- -- 68
2020-09-18 17:00:00 24.4 11 Sur 22 Sudeste 0 -- -- 73
2020-09-18 16:00:00 24.6 9 Sudeste 27 Sudoeste 0 -- -- 70
2020-09-18 15:00:00 22.1 11 Sur 37 Sudeste 1.4 -- -- 79
2020-09-18 14:00:00 20.1 4 Nordeste 10 Oeste 1.8 -- -- 93
2020-09-18 13:00:00 19.9 3 Nordeste 12 Este 0.4 -- -- 94
2020-09-18 12:00:00 19.7 5 Nordeste 9 Nordeste 0.4 -- -- 93
2020-09-18 11:00:00 19.2 6 Nordeste 13 Nordeste 0.4 -- -- 94
2020-09-18 10:00:00 19.1 3 Nordeste 13 Sur 0.2 -- -- 93
2020-09-18 09:00:00 18.9 7 Oeste 14 Noroeste 0.2 -- -- 93
2020-09-18 08:00:00 19.4 6 Oeste 19 Este 2 -- -- 88
2020-09-18 07:00:00 20.9 3 Este 20 Este 0.2 -- -- 81
2020-09-18 06:00:00 21.6 13 Este 17 Este 0.2 -- -- 78
2020-09-18 05:00:00 22.2 6 Este 10 Este 0 -- -- 93
2020-09-18 04:00:00 22.2 4 Oeste 8 Sur 0 -- -- 94
2020-09-18 03:00:00 22.1 3 Este 7 Este 0 -- -- 94
2020-09-18 02:00:00 21.7 4 Sudeste 5 Este 0 -- -- 94
2020-09-18 01:00:00 21.6 4 Este 8 Este 0 -- -- 93
2020-09-18 00:00:00 21.7 2 Nordeste 4 Nordeste 0 -- -- 91
2020-09-17 23:00:00 22.5 0 Calma 5 Oeste 0 -- -- 88
2020-09-17 22:00:00 23.7 0 Calma 8 Norte 0 -- -- 81
2020-09-17 21:00:00 24.9 3 Noroeste 12 Norte 0 -- -- 76
2020-09-17 20:00:00 27.2 4 Norte 15 Nordeste 0 -- -- 65
2020-09-17 19:00:00 29.1 6 Norte 21 Sudeste 0 -- -- 54
2020-09-17 18:00:00 31.9 9 Sudoeste 18 Sudoeste 0 -- -- 44
2020-09-17 17:00:00 30.4 8 Norte 16 Noroeste 0 -- -- 51
2020-09-17 16:00:00 30.7 7 Norte 15 Norte 0 -- -- 49
2020-09-17 15:00:00 29.4 6 Oeste 13 Noroeste 0 -- -- 55
2020-09-17 14:00:00 28.2 4 Noroeste 13 Norte 0 -- -- 59
2020-09-17 13:00:00 26.5 5 Este 13 Este 0 -- -- 68
2020-09-17 12:00:00 24.2 9 Nordeste 13 Este 0 -- -- 80
2020-09-17 11:00:00 23.8 0 Calma 9 Oeste 0 -- -- 80
2020-09-17 10:00:00 22.8 2 Sudoeste 5 Sur 0 -- -- 85
2020-09-17 09:00:00 22 0 Calma 9 Este 0 -- -- 89
2020-09-17 08:00:00 21.8 7 Este 10 Este 0 -- -- 89
2020-09-17 07:00:00 21.4 6 Nordeste 9 Norte 0 -- -- 89
2020-09-17 06:00:00 21.5 6 Nordeste 12 Nordeste 0 -- -- 85
2020-09-17 05:00:00 21.4 7 Nordeste 12 Nordeste 0 -- -- 86
2020-09-17 04:00:00 21.4 5 Nordeste 8 Este 0 -- -- 85
2020-09-17 03:00:00 21.1 0 Calma 6 Nordeste 0 -- -- 86
2020-09-17 02:00:00 20.9 4 Este 7 Sudeste 0 -- -- 87
2020-09-17 01:00:00 21.3 0 Calma 7 Sur 0 -- -- 87
2020-09-17 00:00:00 21.8 5 Sur 8 Sudoeste 0 -- -- 81
2020-09-16 23:00:00 23 4 Sudoeste 11 Sur 0 -- -- 71
2020-09-16 22:00:00 23.5 9 Sur 13 Sudoeste 0 -- -- 61
2020-09-16 21:00:00 25.1 10 Sur 14 Sur 0 -- -- 57
2020-09-16 20:00:00 27.1 8 Sur 10 Sur 0 -- -- 56
2020-09-16 19:00:00 29.8 5 Sur 18 Norte 0 -- -- 43
2020-09-16 18:00:00 30.5 9 Nordeste 18 Norte 0 -- -- 40
2020-09-16 17:00:00 32.4 10 Nordeste 28 Nordeste 0 -- -- 36
2020-09-16 16:00:00 32.6 13 Nordeste 24 Nordeste 0 -- -- 39
2020-09-16 15:00:00 32.1 7 Oeste 15 Sudoeste 0 -- -- 40
2020-09-16 14:00:00 30.5 6 Nordeste 14 Este 0 -- -- 46
2020-09-16 13:00:00 28.6 6 Norte 17 Norte 0 -- -- 50
2020-09-16 12:00:00 26.9 9 Norte 18 Nordeste 0 -- -- 60
2020-09-16 11:00:00 25.1 9 Nordeste 15 Nordeste 0 -- -- 69
2020-09-16 10:00:00 23 9 Nordeste 15 Nordeste 0 -- -- 83
2020-09-16 09:00:00 19.3 3 Nordeste 7 Este 0 -- -- 94
2020-09-16 08:00:00 18.3 4 Nordeste 6 Este 0 -- -- 94
2020-09-16 07:00:00 18.7 3 Nordeste 8 Este 0 -- -- 94
2020-09-16 06:00:00 19.4 5 Nordeste 6 Nordeste 0 -- -- 92
2020-09-16 05:00:00 20.3 5 Nordeste 7 Nordeste 0 -- -- 94
2020-09-16 04:00:00 19.7 5 Este 6 Este 0 -- -- 94
2020-09-16 03:00:00 19.6 0 Calma 3 Sudeste 0 -- -- 93
2020-09-16 02:00:00 20.2 0 Calma 6 Sudeste 0 -- -- 92
2020-09-16 01:00:00 20.8 4 Sur 7 Sudeste 0 -- -- 92
2020-09-16 00:00:00 21.5 5 Sur 9 Sur 0 -- -- 89
2020-09-15 23:00:00 22.2 6 Sur 9 Sur 0 -- -- 84
2020-09-15 22:00:00 24.1 5 Sudoeste 14 Oeste 0 -- -- 70
2020-09-15 21:00:00 25.3 3 Sudoeste 10 Oeste 0 -- -- 63
2020-09-15 20:00:00 28.4 4 Noroeste 15 Norte 0 -- -- 50
2020-09-15 19:00:00 30.8 5 Norte 22 Norte 0 -- -- 41
2020-09-15 18:00:00 32.3 9 Norte 24 Nordeste 0 -- -- 36
2020-09-15 17:00:00 32.8 14 Nordeste 24 Nordeste 0 -- -- 37
2020-09-15 16:00:00 32.6 8 Norte 17 Norte 0 -- -- 34
2020-09-15 15:00:00 32.3 8 Norte 15 Norte 0 -- -- 38
2020-09-15 14:00:00 30.6 3 Nordeste 13 Nordeste 0 -- -- 41
2020-09-15 13:00:00 29.3 8 Nordeste 16 Nordeste 0 -- -- 46
2020-09-15 12:00:00 27.8 8 Nordeste 16 Norte 0 -- -- 52
2020-09-15 11:00:00 26.1 9 Nordeste 13 Nordeste 0 -- -- 64
2020-09-15 10:00:00 24.1 6 Nordeste 9 Nordeste 0 -- -- 73
2020-09-15 09:00:00 21.3 5 Nordeste 10 Nordeste 0 -- -- 94
2020-09-15 08:00:00 19.8 4 Nordeste 10 Nordeste 0 -- -- 93
2020-09-15 07:00:00 20.2 2 Norte 9 Este 0 -- -- 91
2020-09-15 06:00:00 21.1 5 Nordeste 9 Nordeste 0 -- -- 90
2020-09-15 05:00:00 20.6 6 Nordeste 13 Nordeste 0 -- -- 91
2020-09-15 04:00:00 20.6 8 Este 10 Sudeste 0 -- -- 91
2020-09-15 03:00:00 21.3 6 Sur 11 Sur 0 -- -- 92
2020-09-15 02:00:00 21.7 3 Sur 14 Sudeste 0 -- -- 91
2020-09-15 01:00:00 22.4 8 Norte 14 Nordeste 0 -- -- 87
2020-09-15 00:00:00 23.3 4 Nordeste 9 Este 0 -- -- 81
2020-09-14 23:00:00 23.8 3 Sudeste 11 Este 0 -- -- 75
2020-09-14 22:00:00 24.4 8 Nordeste 19 Nordeste 0 -- -- 70
2020-09-14 21:00:00 25 8 Nordeste 19 Nordeste 0 -- -- 64
2020-09-14 20:00:00 26.5 12 Nordeste 27 Norte 0 -- -- 56
2020-09-14 19:00:00 28.5 16 Nordeste 26 Norte 0 -- -- 48
2020-09-14 18:00:00 30.6 11 Nordeste 34 Norte 0 -- -- 42
2020-09-14 17:00:00 30.6 17 Nordeste 30 Norte 0 -- -- 47
2020-09-14 16:00:00 31.6 12 Nordeste 28 Norte 0 -- -- 40
2020-09-14 15:00:00 30.7 14 Nordeste 26 Nordeste 0 -- -- 48
2020-09-14 14:00:00 29.1 8 Norte 20 Nordeste 0 -- -- 52
2020-09-14 13:00:00 27.8 5 Nordeste 17 Norte 0 -- -- 55
2020-09-14 12:00:00 25.9 11 Nordeste 20 Nordeste 0 -- -- 61
2020-09-14 11:00:00 24.6 9 Norte 14 Norte 0 -- -- 58
2020-09-14 10:00:00 22.2 9 Nordeste 16 Nordeste 0 -- -- 72
2020-09-14 09:00:00 19 7 Nordeste 10 Nordeste 0 -- -- 90
2020-09-14 08:00:00 17.4 3 Nordeste 8 Nordeste 0 -- -- 93
2020-09-14 07:00:00 17.9 5 Nordeste 8 Nordeste 0 -- -- 94
2020-09-14 06:00:00 18.5 6 Nordeste 10 Nordeste 0 -- -- 94
2020-09-14 05:00:00 18.6 7 Nordeste 9 Nordeste 0 -- -- 92
2020-09-14 04:00:00 19.3 8 Nordeste 10 Nordeste 0 -- -- 94
2020-09-14 03:00:00 18.9 0 Calma 7 Nordeste 0 -- -- 93
2020-09-14 02:00:00 19.3 6 Nordeste 7 Nordeste 0 -- -- 92
2020-09-14 01:00:00 19.8 4 Nordeste 8 Nordeste 0 -- -- 89
2020-09-14 00:00:00 20.6 3 Este 6 Nordeste 0 -- -- 88
2020-09-13 23:00:00 22 3 Nordeste 9 Norte 0 -- -- 80
2020-09-13 22:00:00 24 8 Norte 17 Nordeste 0 -- -- 71
2020-09-13 21:00:00 25.3 13 Nordeste 18 Nordeste 0 -- -- 61
2020-09-13 20:00:00 27.3 10 Nordeste 19 Nordeste 0 -- -- 53
2020-09-13 19:00:00 29.5 10 Nordeste 21 Nordeste 0 -- -- 45
2020-09-13 18:00:00 30.1 12 Nordeste 24 Este 0 -- -- 43
2020-09-13 17:00:00 31.7 15 Este 28 Este 0 -- -- 40
2020-09-13 16:00:00 31.9 13 Este 28 Este 0 -- -- 37
2020-09-13 15:00:00 32.1 13 Este 24 Este 0 -- -- 35
2020-09-13 14:00:00 29.6 10 Nordeste 20 Norte 0 -- -- 41
2020-09-13 13:00:00 28.5 8 Norte 19 Norte 0 -- -- 43
2020-09-13 12:00:00 28.2 10 Nordeste 18 Este 0 -- -- 43
2020-09-13 11:00:00 25.7 10 Nordeste 15 Nordeste 0 -- -- 52
2020-09-13 10:00:00 23.5 6 Nordeste 9 Nordeste 0 -- -- 70
2020-09-13 09:00:00 19.1 4 Nordeste 8 Nordeste 0 -- -- 90
2020-09-13 08:00:00 17.7 6 Nordeste 8 Nordeste 0 -- -- 93
2020-09-13 07:00:00 18.3 3 Nordeste 10 Nordeste 0 -- -- 91
2020-09-13 06:00:00 18 6 Nordeste 9 Nordeste 0 -- -- 90
2020-09-13 05:00:00 17.8 4 Nordeste 5 Norte 0 -- -- 88
2020-09-13 04:00:00 18.5 4 Nordeste 9 Nordeste 0 -- -- 87
2020-09-13 03:00:00 18.5 8 Nordeste 9 Este 0 -- -- 85
2020-09-13 02:00:00 18.2 3 Nordeste 6 Sudeste 0 -- -- 86
2020-09-13 01:00:00 19.1 3 Nordeste 7 Sudoeste 0 -- -- 84
2020-09-13 00:00:00 19.9 3 Sur 5 Sudeste 0 -- -- 82
2020-09-12 23:00:00 21.5 4 Sur 12 Sur 0 -- -- 72
2020-09-12 22:00:00 23.1 8 Sur 13 Sur 0 -- -- 64
2020-09-12 21:00:00 25.1 7 Sudoeste 12 Oeste 0 -- -- 54
2020-09-12 20:00:00 28.5 9 Norte 20 Norte 0 -- -- 40
2020-09-12 19:00:00 31.2 11 Norte 18 Norte 0 -- -- 32
2020-09-12 18:00:00 32.8 8 Sudoeste 19 Este 0 -- -- 30
2020-09-12 17:00:00 33.7 5 Sur 24 Sudeste 0 -- -- 29
2020-09-12 16:00:00 33.2 6 Norte 18 Sudoeste 0 -- -- 30
2020-09-12 15:00:00 32.2 6 Noroeste 14 Oeste 0 -- -- 34
2020-09-12 14:00:00 30.8 6 Noroeste 13 Noroeste 0 -- -- 36
2020-09-12 13:00:00 29.1 4 Noroeste 12 Nordeste 0 -- -- 41
2020-09-12 12:00:00 27.2 6 Nordeste 13 Norte 0 -- -- 43
2020-09-12 11:00:00 24.7 7 Nordeste 13 Nordeste 0 -- -- 60
2020-09-12 10:00:00 22.2 7 Nordeste 11 Nordeste 0 -- -- 73
2020-09-12 09:00:00 16.9 0 Calma 5 Sudoeste 0 -- -- 89
2020-09-12 08:00:00 15.6 3 Nordeste 5 Nordeste 0 -- -- 91
2020-09-12 07:00:00 16 2 Este 4 Este 0 -- -- 90
2020-09-12 06:00:00 16.4 4 Nordeste 8 Este 0 -- -- 85
2020-09-12 05:00:00 17.1 5 Nordeste 8 Este 0 -- -- 80
2020-09-12 04:00:00 17.2 4 Este 7 Este 0 -- -- 78
2020-09-12 03:00:00 18.2 4 Nordeste 7 Nordeste 0 -- -- 70
2020-09-12 02:00:00 19.1 4 Este 6 Este 0 -- -- 69
2020-09-12 01:00:00 21.2 2 Sur 12 Sudeste 0 -- -- 62
2020-09-12 00:00:00 23.9 7 Sudeste 19 Sur 0 -- -- 42
2020-09-11 23:00:00 25 10 Sur 21 Sur 0 -- -- 37
2020-09-11 22:00:00 25.4 14 Sur 32 Sur 0 -- -- 37
2020-09-11 21:00:00 26.3 12 Sur 27 Sur 0 -- -- 33
2020-09-11 20:00:00 27.5 17 Sur 32 Sur 0 -- -- 31
2020-09-11 19:00:00 30 19 Sudeste 31 Sudeste 0 -- -- 30
2020-09-11 18:00:00 32.2 15 Sur 37 Sudoeste 0 -- -- 29
2020-09-11 17:00:00 32.3 19 Sur 32 Sur 0 -- -- 30
2020-09-11 16:00:00 33.2 17 Sur 30 Sur 0 -- -- 28
2020-09-11 15:00:00 32.7 14 Sur 33 Sudoeste 0 -- -- 30
2020-09-11 14:00:00 31.7 12 Sur 31 Sudoeste 0 -- -- 31
2020-09-11 13:00:00 30 18 Sur 28 Sudoeste 0 -- -- 34
2020-09-11 12:00:00 27.7 10 Sudoeste 18 Sudoeste 0 -- -- 45
2020-09-11 11:00:00 24.3 4 Oeste 16 Oeste 0 -- -- 59
2020-09-11 10:00:00 21.1 7 Sudoeste 14 Sudoeste 0 -- -- 72
2020-09-11 09:00:00 16.4 4 Sudoeste 7 Sudoeste 0 -- -- 96
2020-09-11 08:00:00 15.5 3 Sudoeste 5 Sur 0 -- -- 96
2020-09-11 07:00:00 15.8 0 Calma 13 Sudoeste 0 -- -- 95
2020-09-11 06:00:00 16.4 0 Calma 9 Sur 0 -- -- 95
2020-09-11 05:00:00 16.5 0 Calma 4 Sudeste 0 -- -- 95
2020-09-11 04:00:00 17.2 3 Nordeste 7 Nordeste 0 -- -- 93
2020-09-11 03:00:00 17.6 0 Calma 9 Sur 0 -- -- 92
2020-09-11 02:00:00 18 7 Sur 8 Sur 0 -- -- 92
2020-09-11 01:00:00 18.8 5 Sur 8 Sudoeste 0 -- -- 91
2020-09-11 00:00:00 19.8 2 Sudoeste 9 Sudoeste 0 -- -- 87
2020-09-10 23:00:00 21.1 5 Sudoeste 17 Sudoeste 0 -- -- 82
2020-09-10 22:00:00 22 10 Sudoeste 21 Oeste 0 -- -- 77
2020-09-10 21:00:00 23.1 12 Oeste 23 Oeste 0 -- -- 70
2020-09-10 20:00:00 25.7 13 Sudoeste 26 Sudoeste 0 -- -- 59
2020-09-10 19:00:00 29.3 8 Sudeste 28 Sur 0 -- -- 47
2020-09-10 18:00:00 29.3 17 Sur 34 Sudoeste 0 -- -- 48
2020-09-10 17:00:00 29.9 19 Sur 35 Sudoeste 0 -- -- 46
2020-09-10 16:00:00 31.3 18 Sudoeste 33 Sudoeste 0 -- -- 43
2020-09-10 15:00:00 31 7 Norte 16 Nordeste 0 -- -- 35
2020-09-10 14:00:00 29.2 5 Noroeste 17 Oeste 0 -- -- 42
2020-09-10 13:00:00 28.2 6 Sudoeste 16 Oeste 0 -- -- 43
2020-09-10 12:00:00 26.2 9 Oeste 18 Sudoeste 0 -- -- 48
2020-09-10 11:00:00 23.4 5 Norte 10 Norte 0 -- -- 65
2020-09-10 10:00:00 20.8 0 Calma 4 Oeste 0 -- -- 72
2020-09-10 09:00:00 17.1 0 Calma 4 Sur 0 -- -- 93
2020-09-10 08:00:00 15.5 0 Calma 6 Sudoeste 0 -- -- 94
2020-09-10 07:00:00 15.9 0 Calma 12 Sudoeste 0 -- -- 93
2020-09-10 06:00:00 16.4 0 Calma 9 Nordeste 0 -- -- 93
2020-09-10 05:00:00 16.7 2 Sudeste 5 Este 0 -- -- 92
2020-09-10 04:00:00 17.4 3 Sudeste 7 Este 0 -- -- 91
2020-09-10 03:00:00 18.4 0 Calma 11 Sur 0 -- -- 88
2020-09-10 02:00:00 19.2 9 Sur 14 Sur 0 -- -- 86
2020-09-10 01:00:00 19.2 8 Sur 14 Sur 0 -- -- 85
2020-09-10 00:00:00 19.1 8 Sudoeste 15 Sudoeste 0 -- -- 85
2020-09-09 23:00:00 20.1 0 Calma 9 Oeste 0 -- -- 81
2020-09-09 22:00:00 21.5 4 Oeste 13 Sudeste 0 -- -- 72
2020-09-09 21:00:00 22.7 8 Este 23 Oeste 0 -- -- 66
2020-09-09 20:00:00 24.5 17 Oeste 37 Sudoeste 0 -- -- 58
2020-09-09 19:00:00 28.5 10 Sudeste 27 Sudoeste 0 -- -- 44
2020-09-09 18:00:00 29.1 16 Sur 34 Sur 0 -- -- 46
2020-09-09 17:00:00 30.2 6 Este 30 Este 0 -- -- 37
2020-09-09 16:00:00 30 7 Nordeste 24 Este 0 -- -- 34
2020-09-09 15:00:00 29.6 12 Nordeste 22 Nordeste 0 -- -- 35
2020-09-09 14:00:00 28.6 8 Nordeste 19 Este 0 -- -- 38
2020-09-09 13:00:00 26.9 6 Norte 18 Este 0 -- -- 43
2020-09-09 12:00:00 25.9 10 Este 18 Este 0 -- -- 49
2020-09-09 11:00:00 23.9 9 Nordeste 16 Nordeste 0 -- -- 56
2020-09-09 10:00:00 22 4 Nordeste 10 Nordeste 0 -- -- 60
2020-09-09 09:00:00 18.7 6 Nordeste 12 Nordeste 0 -- -- 80
2020-09-09 08:00:00 15.3 5 Nordeste 6 Nordeste 0 -- -- 93
2020-09-09 07:00:00 15.3 4 Nordeste 8 Este 0 -- -- 92
2020-09-09 06:00:00 15.4 5 Nordeste 7 Nordeste 0 -- -- 92
2020-09-09 05:00:00 15.5 4 Nordeste 9 Este 0 -- -- 91
2020-09-09 04:00:00 15.8 5 Nordeste 8 Este 0 -- -- 90
2020-09-09 03:00:00 16 4 Nordeste 5 Nordeste 0 -- -- 92
2020-09-09 02:00:00 16.4 0 Calma 5 Sudoeste 0 -- -- 90
2020-09-09 01:00:00 17 4 Sudeste 7 Sur 0 -- -- 88
2020-09-09 00:00:00 17.8 3 Sur 10 Sur 0 -- -- 83
2020-09-08 23:00:00 18.3 3 Sur 5 Sudeste 0 -- -- 84
2020-09-08 22:00:00 19.4 5 Sudeste 9 Nordeste 0 -- -- 75
2020-09-08 21:00:00 21.1 4 Sudeste 12 Sur 0 -- -- 68
2020-09-08 20:00:00 22.6 4 Nordeste 22 Sudeste 0 -- -- 61
2020-09-08 19:00:00 24.6 13 Este 26 Este 0 -- -- 55
2020-09-08 18:00:00 26.1 12 Este 23 Nordeste 0 -- -- 49
2020-09-08 17:00:00 26.7 9 Este 26 Este 0 -- -- 45
2020-09-08 16:00:00 27.7 14 Este 31 Este 0 -- -- 42
2020-09-08 15:00:00 28.1 7 Nordeste 30 Nordeste 0 -- -- 41
2020-09-08 14:00:00 27 14 Nordeste 26 Nordeste 0 -- -- 44
2020-09-08 13:00:00 25.9 13 Este 23 Nordeste 0 -- -- 54
2020-09-08 12:00:00 24.6 13 Norte 23 Norte 0 -- -- 54
2020-09-08 11:00:00 23 12 Nordeste 22 Nordeste 0 -- -- 64
2020-09-08 10:00:00 21.2 10 Nordeste 15 Nordeste 0 -- -- 68
2020-09-08 09:00:00 20.1 3 Nordeste 6 Norte 0 -- -- 77
2020-09-08 08:00:00 18.3 2 Norte 4 Sudoeste 0 -- -- 91
2020-09-08 07:00:00 17.8 0 Calma 8 Nordeste 0 -- -- 90
2020-09-08 06:00:00 18.6 4 Nordeste 6 Nordeste 0 -- -- 91
2020-09-08 05:00:00 19.2 4 Nordeste 8 Norte 0 -- -- 87
2020-09-08 04:00:00 19.2 5 Nordeste 13 Nordeste 0 -- -- 88
2020-09-08 03:00:00 19.7 6 Nordeste 9 Nordeste 0 -- -- 89
2020-09-08 02:00:00 20.2 7 Nordeste 10 Norte 0 -- -- 85
2020-09-08 01:00:00 20.8 5 Norte 12 Nordeste 0 -- -- 84
2020-09-08 00:00:00 21.1 8 Nordeste 22 Nordeste 0 -- -- 82
2020-09-07 23:00:00 21.2 5 Nordeste 23 Este 0 -- -- 84
2020-09-07 22:00:00 21.3 13 Nordeste 26 Este 0.4 -- -- 84
2020-09-07 21:00:00 22.1 8 Norte 15 Nordeste 0 -- -- 84
2020-09-07 20:00:00 22.8 5 Oeste 12 Oeste 0 -- -- 85
2020-09-07 19:00:00 23.2 3 Norte 32 Sudeste 5.6 -- -- 89
2020-09-07 18:00:00 29.2 5 Este 38 Sudeste 0 -- -- 52
2020-09-07 17:00:00 29.6 7 Sudoeste 23 Norte 0 -- -- 51
2020-09-07 16:00:00 31 6 Este 17 Nordeste 0 -- -- 41
2020-09-07 15:00:00 29.9 7 Norte 17 Nordeste 0 -- -- 46
2020-09-07 14:00:00 27.8 4 Nordeste 19 Nordeste 0 -- -- 56
2020-09-07 13:00:00 26.2 9 Nordeste 17 Nordeste 0 -- -- 64
2020-09-07 12:00:00 25.6 7 Norte 17 Noroeste 0 -- -- 66
2020-09-07 11:00:00 23.8 8 Nordeste 13 Este 0 -- -- 74
2020-09-07 10:00:00 22.3 4 Nordeste 6 Norte 0 -- -- 81
2020-09-07 09:00:00 20.9 0 Calma 3 Norte 0 -- -- 87
2020-09-07 08:00:00 19.7 0 Calma 5 Este 0 -- -- 94
2020-09-07 07:00:00 18.6 4 Este 5 Este 0 -- -- 95
2020-09-07 06:00:00 18.7 0 Calma 5 Este 0 -- -- 92
2020-09-07 05:00:00 19.5 3 Sudoeste 10 Sur 0 -- -- 91
2020-09-07 04:00:00 20.3 4 Sudoeste 15 Sur 0 -- -- 92
2020-09-07 03:00:00 18.8 2 Sudoeste 8 Sudeste 0 -- -- 93
2020-09-07 02:00:00 19.1 2 Sur 5 Sudoeste 0 -- -- 91
2020-09-07 01:00:00 19.6 4 Sur 5 Sudeste 0 -- -- 89
2020-09-07 00:00:00 20.8 3 Oeste 6 Sudoeste 0 -- -- 86
2020-09-06 23:00:00 22.2 0 Calma 15 Sudoeste 0 -- -- 80
2020-09-06 22:00:00 23.1 6 Sudoeste 22 Sudoeste 0 -- -- 75
2020-09-06 21:00:00 24.1 12 Sudoeste 34 Sudoeste 0 -- -- 71
2020-09-06 20:00:00 26.8 16 Sudoeste 28 Sudoeste 0 -- -- 61
2020-09-06 19:00:00 29.4 15 Sur 29 Sur 0 -- -- 49
2020-09-06 18:00:00 30.5 17 Sudoeste 29 Sudoeste 0 -- -- 47
2020-09-06 17:00:00 31.9 5 Sudoeste 13 Oeste 0 -- -- 38
2020-09-06 16:00:00 31.1 7 Norte 17 Noroeste 0 -- -- 40
2020-09-06 15:00:00 29.9 7 Noroeste 20 Nordeste 0 -- -- 43
2020-09-06 14:00:00 29.1 12 Norte 24 Norte 0 -- -- 46
2020-09-06 13:00:00 27.6 10 Nordeste 20 Norte 0 -- -- 52
2020-09-06 12:00:00 26.6 12 Nordeste 21 Norte 0 -- -- 56
2020-09-06 11:00:00 24.7 11 Nordeste 20 Nordeste 0 -- -- 66
2020-09-06 10:00:00 22.6 9 Nordeste 12 Nordeste 0 -- -- 78
2020-09-06 09:00:00 18.5 5 Nordeste 7 Nordeste 0 -- -- 94
2020-09-06 08:00:00 17.4 4 Nordeste 8 Nordeste 0 -- -- 94
2020-09-06 07:00:00 18.2 8 Nordeste 9 Nordeste 0 -- -- 93
2020-09-06 06:00:00 18.3 6 Nordeste 9 Este 0 -- -- 92
2020-09-06 05:00:00 18.2 4 Este 6 Este 0 -- -- 92
2020-09-06 04:00:00 19.1 3 Este 8 Este 0 -- -- 90
2020-09-06 03:00:00 19.6 3 Nordeste 4 Nordeste 0 -- -- 93
2020-09-06 02:00:00 19.4 0 Calma 5 Sudeste 0 -- -- 90
2020-09-06 01:00:00 20.1 4 Sudeste 9 Sur 0 -- -- 87
2020-09-06 00:00:00 21.5 7 Sur 11 Oeste 0 -- -- 82
2020-09-05 23:00:00 23.1 4 Sudoeste 20 Oeste 0 -- -- 75
2020-09-05 22:00:00 23.9 13 Oeste 28 Oeste 0 -- -- 71
2020-09-05 21:00:00 24.9 12 Noroeste 22 Noroeste 0 -- -- 64
2020-09-05 20:00:00 26.7 13 Oeste 30 Oeste 0 -- -- 60
2020-09-05 19:00:00 28.2 18 Oeste 34 Oeste 0 -- -- 54
2020-09-05 18:00:00 29.6 9 Norte 17 Norte 0 -- -- 47
2020-09-05 17:00:00 30.6 11 Nordeste 22 Nordeste 0 -- -- 46
2020-09-05 16:00:00 31 9 Norte 46 Norte 0 -- -- 41
2020-09-05 15:00:00 30 10 Norte 16 Norte 0 -- -- 43
2020-09-05 14:00:00 28.8 6 Norte 19 Norte 0 -- -- 49
2020-09-05 13:00:00 27.5 7 Norte 21 Nordeste 0 -- -- 51
2020-09-05 12:00:00 25.9 10 Norte 18 Norte 0 -- -- 60
2020-09-05 11:00:00 24.6 10 Nordeste 17 Norte 0 -- -- 66
2020-09-05 10:00:00 22.7 9 Nordeste 15 Nordeste 0 -- -- 75
2020-09-05 09:00:00 19.2 4 Nordeste 7 Nordeste 0 -- -- 90
2020-09-05 08:00:00 17.5 6 Nordeste 8 Este 0 -- -- 92
2020-09-05 07:00:00 18.1 5 Este 6 Nordeste 0 -- -- 90
2020-09-05 06:00:00 18.3 4 Nordeste 6 Nordeste 0 -- -- 93
2020-09-05 05:00:00 18.7 2 Nordeste 4 Nordeste 0 -- -- 93
2020-09-05 04:00:00 18.4 0 Calma 3 Norte 0 -- -- 93
2020-09-05 03:00:00 18.6 3 Norte 5 Este 0 -- -- 91
2020-09-05 02:00:00 19 4 Este 6 Este 0 -- -- 92
2020-09-05 01:00:00 18.8 0 Calma 4 Nordeste 0 -- -- 90
2020-09-05 00:00:00 19.7 3 Nordeste 5 Nordeste 0 -- -- 86
2020-09-04 23:00:00 21.4 4 Nordeste 14 Nordeste 0 -- -- 77
2020-09-04 22:00:00 22.6 9 Nordeste 19 Este 0 -- -- 72
2020-09-04 21:00:00 23.9 7 Nordeste 20 Este 0 -- -- 64
2020-09-04 20:00:00 26.6 9 Este 21 Nordeste 0 -- -- 55
2020-09-04 19:00:00 28.3 11 Nordeste 27 Nordeste 0 -- -- 50
2020-09-04 18:00:00 29.5 13 Este 30 Norte 0 -- -- 45
2020-09-04 17:00:00 29.7 18 Norte 32 Nordeste 0 -- -- 41
2020-09-04 16:00:00 29.7 17 Nordeste 34 Nordeste 0 -- -- 44
2020-09-04 15:00:00 29.9 12 Nordeste 32 Nordeste 0 -- -- 42
2020-09-04 14:00:00 28.5 12 Nordeste 25 Este 0 -- -- 50
2020-09-04 13:00:00 26.8 10 Norte 22 Nordeste 0 -- -- 56
2020-09-04 12:00:00 24.9 8 Nordeste 17 Nordeste 0 -- -- 65
2020-09-04 11:00:00 23.5 6 Nordeste 12 Nordeste 0 -- -- 71
2020-09-04 10:00:00 21 3 Nordeste 5 Norte 0 -- -- 85
2020-09-04 09:00:00 18.2 3 Norte 6 Este 0 -- -- 94
2020-09-04 08:00:00 16.7 6 Nordeste 7 Nordeste 0 -- -- 96
2020-09-04 07:00:00 16.3 3 Nordeste 4 Este 0 -- -- 95
2020-09-04 06:00:00 16.7 4 Nordeste 6 Nordeste 0 -- -- 95
2020-09-04 05:00:00 16.7 3 Nordeste 5 Nordeste 0 -- -- 94
2020-09-04 04:00:00 17.3 3 Nordeste 9 Este 0 -- -- 91
2020-09-04 03:00:00 17.4 3 Nordeste 5 Nordeste 0 -- -- 92
2020-09-04 02:00:00 18.1 4 Nordeste 5 Norte 0 -- -- 90
2020-09-04 01:00:00 19 0 Calma 8 Sur 0 -- -- 86
2020-09-04 00:00:00 19.9 5 Sudoeste 12 Sudoeste 0 -- -- 81
2020-09-03 23:00:00 20.3 5 Sur 12 Sur 0 -- -- 80
2020-09-03 22:00:00 21.5 8 Sur 10 Sur 0 -- -- 69
2020-09-03 21:00:00 24.3 6 Este 20 Nordeste 0 -- -- 59
2020-09-03 20:00:00 28 6 Nordeste 18 Este 0 -- -- 40
2020-09-03 19:00:00 29.7 10 Este 26 Este 0 -- -- 35
2020-09-03 18:00:00 30.2 10 Este 31 Nordeste 0 -- -- 38
2020-09-03 17:00:00 30 11 Nordeste 27 Nordeste 0 -- -- 40
2020-09-03 16:00:00 31 9 Este 23 Nordeste 0 -- -- 41
2020-09-03 15:00:00 29.1 8 Nordeste 21 Sudeste 0 -- -- 45
2020-09-03 14:00:00 29.1 5 Sur 17 Sur 0 -- -- 45
2020-09-03 13:00:00 28.5 4 Este 12 Nordeste 0 -- -- 52
2020-09-03 12:00:00 26.6 5 Este 15 Norte 0 -- -- 59
2020-09-03 11:00:00 24.4 7 Nordeste 15 Nordeste 0 -- -- 68
2020-09-03 10:00:00 22.2 6 Nordeste 9 Norte 0 -- -- 76
2020-09-03 09:00:00 17.9 0 Calma 6 Nordeste 0 -- -- 93
2020-09-03 08:00:00 16.5 0 Calma 6 Nordeste 0 -- -- 95
2020-09-03 07:00:00 16.5 3 Nordeste 6 Nordeste 0 -- -- 95
2020-09-03 06:00:00 16.8 0 Calma 3 Noroeste 0 -- -- 94
2020-09-03 05:00:00 17.1 0 Calma 6 Sudeste 0 -- -- 94
2020-09-03 04:00:00 17.3 3 Sur 6 Sur 0 -- -- 93
2020-09-03 03:00:00 17.9 0 Calma 3 Sudoeste 0 -- -- 91
2020-09-03 02:00:00 18.6 3 Nordeste 7 Sudeste 0 -- -- 89
2020-09-03 01:00:00 19 5 Sudeste 8 Sudeste 0 -- -- 87
2020-09-03 00:00:00 20.2 2 Nordeste 8 Este 0 -- -- 82
2020-09-02 23:00:00 21.5 2 Sur 14 Sudoeste 0 -- -- 76
2020-09-02 22:00:00 22.6 7 Sudoeste 18 Sudoeste 0 -- -- 69
2020-09-02 21:00:00 23.8 2 Nordeste 29 Oeste 0 -- -- 64
2020-09-02 20:00:00 26.1 14 Oeste 30 Sudeste 0 -- -- 53
2020-09-02 19:00:00 28.3 10 Sur 32 Sur 0 -- -- 46
2020-09-02 18:00:00 30 14 Sur 35 Sudeste 0 -- -- 39
2020-09-02 17:00:00 30.2 12 Sudeste 26 Sur 0 -- -- 39
2020-09-02 16:00:00 30.6 12 Sudeste 28 Sudeste 0 -- -- 40
2020-09-02 15:00:00 29 15 Sudeste 27 Sudeste 0 -- -- 46
2020-09-02 14:00:00 29.4 5 Oeste 14 Sur 0 -- -- 41
2020-09-02 13:00:00 27.7 5 Oeste 12 Oeste 0 -- -- 50
2020-09-02 12:00:00 25.7 3 Sudoeste 13 Nordeste 0 -- -- 58
2020-09-02 11:00:00 24.6 8 Norte 16 Norte 0 -- -- 62
2020-09-02 10:00:00 22.5 8 Norte 13 Norte 0 -- -- 73
2020-09-02 09:00:00 19.6 5 Norte 9 Nordeste 0 -- -- 84
2020-09-02 08:00:00 18.4 6 Este 9 Este 0 -- -- 88
2020-09-02 07:00:00 18.1 6 Nordeste 7 Nordeste 0 -- -- 92
2020-09-02 06:00:00 18 3 Sur 5 Sur 0 -- -- 90
2020-09-02 05:00:00 18.6 2 Norte 5 Sudoeste 0 -- -- 90
2020-09-02 04:00:00 19.2 3 Nordeste 6 Sur 0 -- -- 87
2020-09-02 03:00:00 19 6 Sur 8 Sur 0 -- -- 85
2020-09-02 02:00:00 18.9 5 Sur 7 Sur 0 -- -- 88
2020-09-02 01:00:00 18.7 0 Calma 5 Este 0 -- -- 90
2020-09-02 00:00:00 19 2 Este 5 Este 0 -- -- 88
2020-09-01 23:00:00 19.8 2 Este 6 Sudoeste 0 -- -- 84
2020-09-01 22:00:00 20.6 3 Sudoeste 12 Sur 0 -- -- 78
2020-09-01 21:00:00 21.8 3 Sur 19 Sudoeste 0 -- -- 72
2020-09-01 20:00:00 23.4 5 Sudoeste 26 Sudoeste 0 -- -- 65
2020-09-01 19:00:00 25.3 6 Sur 35 Sur 0 -- -- 61
2020-09-01 18:00:00 24.6 17 Sudoeste 34 Sudoeste 0 -- -- 62
2020-09-01 17:00:00 26.6 15 Sudoeste 26 Sur 0 -- -- 56
2020-09-01 16:00:00 26.8 5 Nordeste 10 Este 0 -- -- 53
2020-09-01 15:00:00 27.4 0 Calma 9 Nordeste 0 -- -- 54
2020-09-01 14:00:00 27 4 Este 11 Nordeste 0 -- -- 52
2020-09-01 13:00:00 26.3 3 Norte 9 Nordeste 0 -- -- 55
2020-09-01 12:00:00 24.9 4 Norte 10 Sudoeste 0 -- -- 60
2020-09-01 11:00:00 23.6 2 Nordeste 8 Sudoeste 0 -- -- 66
2020-09-01 10:00:00 20.3 0 Calma 5 Sudoeste 0 -- -- 82
2020-09-01 09:00:00 17.3 2 Sur 6 Este 0 -- -- 95
2020-09-01 08:00:00 15.8 4 Este 6 Este 0 -- -- 96
2020-09-01 07:00:00 15.8 4 Nordeste 8 Este 0 -- -- 95
2020-09-01 06:00:00 16.2 4 Nordeste 6 Este 0 -- -- 94
2020-09-01 05:00:00 16.7 0 Calma 5 Oeste 0 -- -- 93
2020-09-01 04:00:00 17.6 3 Este 10 Este 0 -- -- 91
2020-09-01 03:00:00 17.7 8 Este 10 Este 0 -- -- 91
2020-09-01 02:00:00 18.2 4 Norte 8 Este 0 -- -- 91
2020-09-01 01:00:00 19 4 Sudoeste 6 Sur 0 -- -- 87
2020-09-01 00:00:00 20.7 3 Sudoeste 12 Sudoeste 0 -- -- 80
2020-08-31 23:00:00 21.9 6 Oeste 12 Oeste 0 -- -- 74
2020-08-31 22:00:00 21.9 3 Noroeste 24 Sudeste 0 -- -- 70
2020-08-31 21:00:00 22.9 10 Sur 26 Sur 0 -- -- 62
2020-08-31 20:00:00 25.1 13 Sudeste 29 Sudeste 0 -- -- 54
2020-08-31 19:00:00 26.9 17 Sudeste 36 Sudeste 0 -- -- 48
2020-08-31 18:00:00 27.3 14 Sudeste 35 Sudeste 0 -- -- 48
2020-08-31 17:00:00 28.5 14 Sudeste 44 Este 0 -- -- 47
2020-08-31 16:00:00 27.2 10 Nordeste 18 Nordeste 0 -- -- 47
2020-08-31 15:00:00 26.7 9 Nordeste 17 Nordeste 0 -- -- 46
2020-08-31 14:00:00 27.3 7 Noroeste 16 Oeste 0 -- -- 44
2020-08-31 13:00:00 25.8 4 Norte 13 Nordeste 0 -- -- 50
2020-08-31 12:00:00 25.1 7 Nordeste 17 Nordeste 0 -- -- 54
2020-08-31 11:00:00 23 8 Nordeste 14 Nordeste 0 -- -- 61
2020-08-31 10:00:00 20.6 8 Nordeste 11 Nordeste 0 -- -- 75
2020-08-31 09:00:00 17.4 4 Nordeste 6 Este 0 -- -- 87
2020-08-31 08:00:00 15.7 6 Nordeste 8 Este 0 -- -- 91
2020-08-31 07:00:00 16 5 Nordeste 10 Este 0 -- -- 89
2020-08-31 06:00:00 16 6 Nordeste 9 Este 0 -- -- 92
2020-08-31 05:00:00 16.1 3 Nordeste 5 Norte 0 -- -- 93
2020-08-31 04:00:00 16.7 3 Nordeste 8 Nordeste 0 -- -- 90
2020-08-31 03:00:00 17.5 5 Nordeste 8 Nordeste 0 -- -- 88
2020-08-31 02:00:00 17.7 5 Este 7 Este 0 -- -- 90
2020-08-31 01:00:00 18.1 0 Calma 5 Norte 0 -- -- 89
2020-08-31 00:00:00 19 4 Norte 9 Este 0 -- -- 83
2020-08-30 23:00:00 19.9 5 Sudeste 9 Nordeste 0 -- -- 80
2020-08-30 22:00:00 21.1 6 Este 13 Nordeste 0 -- -- 70
2020-08-30 21:00:00 22.7 4 Noroeste 22 Sudeste 0 -- -- 62
2020-08-30 20:00:00 25.3 10 Sudeste 26 Sudeste 0 -- -- 50
2020-08-30 19:00:00 27.6 11 Sudeste 24 Sudeste 0 -- -- 40
2020-08-30 18:00:00 28.7 7 Este 26 Este 0 -- -- 36
2020-08-30 17:00:00 29.7 10 Sudeste 26 Sudeste 0 -- -- 34
2020-08-30 16:00:00 28.1 3 Norte 14 Oeste 0 -- -- 34
2020-08-30 15:00:00 27.2 7 Nordeste 16 Noroeste 0 -- -- 37
2020-08-30 14:00:00 26.4 4 Nordeste 17 Este 0 -- -- 36
2020-08-30 13:00:00 24.9 7 Este 13 Nordeste 0 -- -- 37
2020-08-30 12:00:00 24.3 7 Nordeste 15 Nordeste 0 -- -- 36
2020-08-30 11:00:00 22.5 5 Nordeste 13 Este 0 -- -- 44
2020-08-30 10:00:00 20.8 7 Nordeste 17 Nordeste 0 -- -- 44
2020-08-30 09:00:00 18.9 8 Este 14 Este 0 -- -- 55
2020-08-30 08:00:00 18 5 Este 14 Este 0 -- -- 54
2020-08-30 07:00:00 18.3 5 Este 15 Sudeste 0 -- -- 47
2020-08-30 06:00:00 18 5 Este 14 Nordeste 0 -- -- 51
2020-08-30 05:00:00 18.7 8 Este 15 Este 0 -- -- 48
2020-08-30 04:00:00 19.9 9 Este 22 Nordeste 0 -- -- 40
2020-08-30 03:00:00 20.5 6 Norte 17 Norte 0 -- -- 36
2020-08-30 02:00:00 19.6 8 Nordeste 12 Nordeste 0 -- -- 45
2020-08-30 01:00:00 20.4 6 Nordeste 12 Nordeste 0 -- -- 37
2020-08-30 00:00:00 20.7 8 Nordeste 15 Nordeste 0 -- -- 44
2020-08-29 23:00:00 20.4 11 Nordeste 29 Nordeste 0 -- -- 57
2020-08-29 22:00:00 21.8 16 Nordeste 24 Nordeste 0 -- -- 50
2020-08-29 21:00:00 22.2 12 Nordeste 19 Nordeste 0 -- -- 87
2020-08-29 20:00:00 23.5 12 Nordeste 18 Nordeste 0 -- -- 79
2020-08-29 19:00:00 24.5 10 Nordeste 14 Norte 0 -- -- 75
2020-08-29 18:00:00 22.5 4 Oeste 32 Sudoeste 13.4 -- -- 81
2020-08-29 17:00:00 26.7 9 Norte 35 Este 1.8 -- -- 67
2020-08-29 16:00:00 31.4 9 Este 27 Este 0 -- -- 45
2020-08-29 15:00:00 30.3 14 Nordeste 31 Nordeste 0 -- -- 47
2020-08-29 14:00:00 32.6 5 Nordeste 17 Norte 0 -- -- 19
2020-08-29 13:00:00 31.2 7 Nordeste 19 Nordeste 0 -- -- 20
2020-08-29 12:00:00 29.8 12 Nordeste 22 Nordeste 0 -- -- 22
2020-08-29 11:00:00 28.6 14 Nordeste 23 Nordeste 0 -- -- 23
2020-08-29 10:00:00 26.6 9 Nordeste 14 Nordeste 0 -- -- 32
2020-08-29 09:00:00 24.5 5 Norte 12 Noroeste 0 -- -- 43
2020-08-29 08:00:00 23.1 7 Este 12 Nordeste 0 -- -- 40
2020-08-29 07:00:00 24.6 4 Este 13 Nordeste 0 -- -- 35
2020-08-29 06:00:00 26 5 Este 16 Nordeste 0 -- -- 37
2020-08-29 05:00:00 26.9 7 Nordeste 22 Nordeste 0 -- -- 35
2020-08-29 04:00:00 26.5 14 Este 20 Este 0 -- -- 40
2020-08-29 03:00:00 25.6 4 Norte 17 Nordeste 0 -- -- 59
2020-08-29 02:00:00 24.3 7 Este 15 Nordeste 0 -- -- 61
2020-08-29 01:00:00 23.5 9 Nordeste 13 Nordeste 0 -- -- 83
2020-08-29 00:00:00 23.1 2 Sudeste 8 Sudoeste 0 -- -- 85
2020-08-28 23:00:00 24.2 7 Sur 10 Sur 0 -- -- 81
2020-08-28 22:00:00 25.6 6 Sudoeste 25 Sur 0 -- -- 75
2020-08-28 21:00:00 26.9 18 Sudoeste 28 Sur 0 -- -- 68
2020-08-28 20:00:00 29.6 15 Sudoeste 32 Sudoeste 0 -- -- 56
2020-08-28 19:00:00 31.5 22 Sudoeste 36 Oeste 0 -- -- 49
2020-08-28 18:00:00 33.7 21 Sudoeste 38 Sudoeste 0 -- -- 44
2020-08-28 17:00:00 36.9 18 Sudoeste 32 Sudoeste 0 -- -- 32
2020-08-28 16:00:00 36 4 Norte 29 Oeste 0 -- -- 39
2020-08-28 15:00:00 34.8 14 Oeste 24 Sudoeste 0 -- -- 43
2020-08-28 14:00:00 34.1 6 Oeste 17 Sudoeste 0 -- -- 40
2020-08-28 13:00:00 32.2 9 Sudoeste 21 Sudoeste 0 -- -- 45
2020-08-28 12:00:00 30 13 Sudoeste 24 Oeste 0 -- -- 49
2020-08-28 11:00:00 27.3 12 Sudoeste 25 Sudoeste 0 -- -- 62
2020-08-28 10:00:00 25.4 7 Sudoeste 15 Sudoeste 0 -- -- 78
2020-08-28 09:00:00 22.4 4 Sur 9 Sur 0 -- -- 86
2020-08-28 08:00:00 20.5 6 Sur 10 Sudoeste 0 -- -- 85
2020-08-28 07:00:00 19.4 7 Sur 9 Sudoeste 0 -- -- 83
2020-08-28 06:00:00 19.6 4 Sudoeste 9 Sur 0 -- -- 84
2020-08-28 05:00:00 19.8 3 Sur 8 Sur 0 -- -- 81
2020-08-28 04:00:00 20.5 2 Este 8 Sudoeste 0 -- -- 77
2020-08-28 03:00:00 21.2 6 Sur 8 Sur 0 -- -- 70
2020-08-28 02:00:00 22.2 4 Sudeste 7 Sudeste 0 -- -- 70
2020-08-28 01:00:00 24.1 2 Sudoeste 13 Oeste 0 -- -- 61
2020-08-28 00:00:00 26.4 7 Sudoeste 17 Sur 0 -- -- 38